Accueil
METAR-TAF:

METAR-TAF

Aéroports :

Aéroport international de Chengdu-Shuangliu

Chengdu, Chine

latitude: 30-40N, longitude: 104-01E, altitude: 508 m

Observation

Le bulletin a été fait il y a 24 minutes, à 02:00 UTC
Vent calme
Température 31°C
Humidité 63%
Pression 1005 hPa
Visibilité 10 km ou plus
pas de nuages en-dessous de 1500 mètres et pas de cumulonimbus.

METAR: ZUUU 190200Z 00000MPS CAVOK 31/23 Q1005 NOSIG

Heure: 10:24 (02:24 UTC)

Prévision

Le bulletin a été fait il y a 5 heures et 45 minutes, à 20:39 UTC
Prévision valable du 19 à 00 UTC au 19 à 24 UTC
Vent 6 kt de sud/sud-ouest
Visibilité: 6000 m
Nuages épars à une hauteur de 5000 ft
Temporairement
du 19 à 06 UTC au 19 à 12 UTC
Quelques nuages à une hauteur de 3000 ft, Cumulonimbus.
Nuages épars à une hauteur de 5000 ft

TAF: ZUUU 182039Z 1900/1924 20003MPS 6000 SCT050 TX34/1907Z TN24/1922Z TEMPO 1906/1912 FEW030CB SCT050

Observations et prévisions météorologiques de plus de 4000 aéroports (messages METAR et TAF).

Les stations disponibles sont représentées par des disques jaunes et rouges sur la carte.

Passer la souris dessus pour voir le nom de la station.

Cliquer dessus pour voir les observations et prévisions météorologiques.

Pour changer de carte: cliquez sur les boutons verts avec une croix noire pour zoomer, sur le bouton vert avec un tiret pour effectuer un zoom arrière, ou sur les flèches vertes pour les cartes adjacentes.


METAR-TAF: